Time;durP1;ratioP1;P1;durP2;ratioP2;P2;SDS_P1;SDS_P2;PMS_P1;PMS_P2;Temp;Humidity;BMP_temperature;BMP_pressure;BME280_temperature;BME280_humidity;BME280_pressure;Samples;Min_cycle;Max_cycle;Signal;HPM_P1;HPM_P2
2024/04/14 00:00:12;;;;;;;5.43;3.87;;;13.70;99.90;;;;;;5407045;26;20242;-60
2024/04/14 00:02:38;;;;;;;6.07;3.90;;;13.70;99.90;;;;;;5406924;26;20266;-61
2024/04/14 00:05:09;;;;;;;4.47;3.40;;;13.60;99.90;;;;;;5407709;26;20244;-60
2024/04/14 00:07:36;;;;;;;4.77;3.50;;;13.60;99.90;;;;;;5407015;26;20731;-60
2024/04/14 00:10:05;;;;;;;4.30;3.70;;;13.60;99.90;;;;;;5406570;26;20323;-59
2024/04/14 00:12:30;;;;;;;4.57;3.40;;;13.60;99.90;;;;;;5407653;26;20254;-61
2024/04/14 00:14:59;;;;;;;3.73;3.37;;;13.60;99.90;;;;;;5434809;21;20231;-60
2024/04/14 00:17:25;;;;;;;5.57;3.80;;;13.60;99.90;;;;;;5443393;26;20777;-61
2024/04/14 00:19:54;;;;;;;5.30;3.80;;;13.60;99.90;;;;;;5469904;26;20237;-61
2024/04/14 00:22:22;;;;;;;8.10;3.70;;;13.50;99.90;;;;;;5469592;26;20275;-61
2024/04/14 00:24:50;;;;;;;5.93;3.80;;;13.50;99.90;;;;;;5462451;26;20675;-62
2024/04/14 00:27:16;;;;;;;5.67;3.50;;;13.50;99.90;;;;;;5462049;26;20588;-61
2024/04/14 00:29:44;;;;;;;9.53;3.57;;;13.50;99.90;;;;;;5469481;26;20233;-61
2024/04/14 00:32:11;;;;;;;6.73;4.03;;;13.50;99.90;;;;;;5470113;26;20267;-61
2024/04/14 00:34:39;;;;;;;5.43;3.30;;;13.50;99.90;;;;;;5463800;26;20710;-61
2024/04/14 00:37:05;;;;;;;4.23;3.30;;;13.50;99.90;;;;;;5461861;26;20611;-62
2024/04/14 00:39:36;;;;;;;9.50;3.53;;;13.50;99.90;;;;;;5465060;26;20265;-61
2024/04/14 00:42:02;;;;;;;5.07;3.30;;;13.50;99.90;;;;;;5469140;26;20229;-61
2024/04/14 00:44:30;;;;;;;5.83;3.87;;;13.50;99.90;;;;;;5466300;26;20233;-61
2024/04/14 00:46:56;;;;;;;4.67;3.20;;;13.50;99.90;;;;;;5461593;26;20361;-61
2024/04/14 00:49:25;;;;;;;5.07;3.50;;;13.40;99.90;;;;;;5462122;26;20763;-61
2024/04/14 00:51:52;;;;;;;8.20;4.13;;;13.40;99.90;;;;;;5469686;26;20807;-62
2024/04/14 00:54:21;;;;;;;5.90;3.37;;;13.40;99.90;;;;;;5469399;26;20272;-62
2024/04/14 00:56:50;;;;;;;6.70;3.37;;;13.50;99.90;;;;;;5461414;26;20711;-61
2024/04/14 00:59:19;;;;;;;4.33;3.60;;;13.40;99.90;;;;;;5461191;26;20230;-61
2024/04/14 01:01:44;;;;;;;4.90;3.20;;;13.40;99.90;;;;;;5436160;26;20264;-61
2024/04/14 01:04:13;;;;;;;5.10;3.77;;;13.40;99.90;;;;;;5469455;26;20233;-62
2024/04/14 01:06:39;;;;;;;5.17;3.50;;;13.30;99.90;;;;;;5462865;26;20293;-62
2024/04/14 01:09:08;;;;;;;4.50;3.37;;;13.40;99.90;;;;;;5461410;26;20238;-62
2024/04/14 01:11:34;;;;;;;8.73;3.67;;;13.30;99.90;;;;;;5466205;26;20366;-61
2024/04/14 01:14:07;;;;;;;6.60;3.70;;;13.30;99.90;;;;;;5469372;26;20244;-61
2024/04/14 01:16:36;;;;;;;3.47;3.07;;;13.30;99.90;;;;;;5464435;26;20233;-61
2024/04/14 01:19:05;;;;;;;4.60;3.23;;;13.30;99.90;;;;;;5461320;26;20326;-61
2024/04/14 01:21:31;;;;;;;6.97;3.37;;;13.20;99.90;;;;;;5464753;26;20231;-61
2024/04/14 01:23:59;;;;;;;4.47;3.50;;;13.20;99.90;;;;;;5469202;26;20267;-61
2024/04/14 01:26:28;;;;;;;8.97;3.43;;;13.30;99.90;;;;;;5467034;26;20233;-61
2024/04/14 01:28:56;;;;;;;4.53;3.00;;;13.20;99.90;;;;;;5461240;26;20720;-61
2024/04/14 01:31:22;;;;;;;4.20;3.27;;;13.20;99.90;;;;;;5461895;26;20230;-63
2024/04/14 01:33:53;;;;;;;3.93;3.10;;;13.20;99.90;;;;;;5469002;26;20233;-63
2024/04/14 01:36:19;;;;;;;6.50;3.57;;;13.10;99.90;;;;;;5468647;26;20761;-62
2024/04/14 01:38:47;;;;;;;6.03;3.20;;;13.10;99.90;;;;;;5460662;26;20234;-61
2024/04/14 01:41:13;;;;;;;6.30;3.00;;;13.00;99.90;;;;;;5460465;26;20230;-61
2024/04/14 01:43:44;;;;;;;5.80;2.90;;;13.00;99.90;;;;;;5466641;26;20333;-61
2024/04/14 01:46:09;;;;;;;4.73;3.20;;;13.00;99.90;;;;;;5469011;26;20232;-61
2024/04/14 01:48:38;;;;;;;4.57;3.40;;;13.00;99.90;;;;;;5464244;26;20272;-61
2024/04/14 01:51:03;;;;;;;4.23;2.97;;;13.00;99.90;;;;;;5460334;26;20230;-62
2024/04/14 01:53:32;;;;;;;5.00;2.90;;;13.00;99.90;;;;;;5463930;26;20280;-61
2024/04/14 01:55:57;;;;;;;3.60;3.00;;;13.00;99.90;;;;;;5469158;26;20716;-61
2024/04/14 01:58:26;;;;;;;5.30;3.10;;;13.00;99.90;;;;;;5467867;26;20228;-62
2024/04/14 02:00:54;;;;;;;5.53;3.43;;;13.00;99.90;;;;;;5460328;26;20272;-63
2024/04/14 02:03:22;;;;;;;5.23;3.03;;;13.00;99.90;;;;;;5460551;26;20269;-61
2024/04/14 02:05:55;;;;;;;5.83;2.97;;;13.10;99.90;;;;;;5468450;26;20284;-61
2024/04/14 02:08:24;;;;;;;4.13;2.90;;;13.10;99.90;;;;;;5468074;26;20232;-62
2024/04/14 02:10:50;;;;;;;4.63;2.80;;;13.10;99.90;;;;;;5460045;26;20234;-61
2024/04/14 02:13:19;;;;;;;3.87;2.70;;;13.00;99.90;;;;;;5460320;26;20272;-61
2024/04/14 02:15:44;;;;;;;3.87;2.80;;;13.00;99.90;;;;;;5467547;26;20717;-61
2024/04/14 02:18:16;;;;;;;4.27;2.80;;;12.90;99.90;;;;;;5468361;26;20232;-61
2024/04/14 02:20:43;;;;;;;9.03;3.30;;;12.90;99.90;;;;;;5461024;26;20268;-61
2024/04/14 02:23:11;;;;;;;4.50;3.10;;;12.90;99.90;;;;;;5460335;26;20230;-61
2024/04/14 02:25:37;;;;;;;3.23;2.80;;;12.90;99.90;;;;;;5465191;26;20749;-61
2024/04/14 02:28:06;;;;;;;5.03;2.97;;;12.90;99.90;;;;;;5468121;26;20232;-61
2024/04/14 02:30:32;;;;;;;4.90;2.70;;;12.90;99.90;;;;;;5464049;26;20229;-61
2024/04/14 02:33:00;;;;;;;4.57;2.93;;;12.90;99.90;;;;;;5460077;26;20589;-61
2024/04/14 02:35:28;;;;;;;4.03;3.00;;;12.90;99.90;;;;;;5461097;26;20238;-61
2024/04/14 02:37:57;;;;;;;2.90;2.60;;;12.90;99.90;;;;;;5467772;26;20267;-61
2024/04/14 02:40:22;;;;;;;4.53;2.93;;;12.90;99.90;;;;;;5467161;26;20228;-61
2024/04/14 02:42:51;;;;;;;3.10;2.70;;;12.90;99.90;;;;;;5459716;26;20276;-61
2024/04/14 02:45:16;;;;;;;4.30;2.97;;;12.90;99.90;;;;;;5459978;26;20755;-61
2024/04/14 02:47:45;;;;;;;7.10;2.67;;;12.80;99.90;;;;;;5466288;26;20228;-61
2024/04/14 02:50:11;;;;;;;4.20;2.80;;;12.70;99.90;;;;;;5467321;26;20225;-61
2024/04/14 02:52:41;;;;;;;3.43;2.70;;;12.70;99.90;;;;;;5463060;26;20272;-62
2024/04/14 02:55:07;;;;;;;3.27;2.80;;;12.60;99.90;;;;;;5459746;26;20708;-61
2024/04/14 02:57:36;;;;;;;4.07;2.47;;;12.60;99.90;;;;;;5463014;26;20234;-61
2024/04/14 03:00:02;;;;;;;3.53;2.47;;;12.70;99.90;;;;;;5467241;26;20271;-61
2024/04/14 03:02:30;;;;;;;3.13;2.83;;;12.80;99.90;;;;;;5465344;26;20232;-61
2024/04/14 03:04:56;;;;;;;3.17;2.70;;;12.80;99.90;;;;;;5462176;26;20607;-61
2024/04/14 03:07:25;;;;;;;5.37;2.60;;;12.80;99.90;;;;;;5463072;26;20241;-61
2024/04/14 03:09:55;;;;;;;3.30;2.67;;;12.80;99.90;;;;;;5438370;26;20232;-62
2024/04/14 03:12:23;;;;;;;5.50;2.90;;;12.70;99.90;;;;;;5471044;26;20271;-62
2024/04/14 03:14:49;;;;;;;5.70;3.20;;;12.70;99.90;;;;;;5462922;26;20233;-62
2024/04/14 03:17:20;;;;;;;4.37;3.20;;;12.70;99.90;;;;;;5462868;26;20333;-62
2024/04/14 03:19:50;;;;;;;5.23;2.97;;;12.70;99.90;;;;;;5470137;26;20281;-62
2024/04/14 03:22:18;;;;;;;4.60;2.90;;;12.80;99.90;;;;;;5470887;26;20229;-61
2024/04/14 03:24:44;;;;;;;8.10;3.20;;;12.70;99.90;;;;;;5464117;26;20229;-61
2024/04/14 03:27:15;;;;;;;4.33;2.97;;;12.70;99.90;;;;;;5462796;26;20770;-61
2024/04/14 03:29:41;;;;;;;4.57;2.90;;;12.70;99.90;;;;;;5468213;26;20257;-61
2024/04/14 03:32:09;;;;;;;3.60;2.73;;;12.70;99.90;;;;;;5470780;26;20296;-60
2024/04/14 03:34:35;;;;;;;3.67;3.10;;;12.70;99.90;;;;;;5466730;26;20229;-61
2024/04/14 03:37:04;;;;;;;4.30;2.80;;;12.70;99.90;;;;;;5462573;26;20754;-60
2024/04/14 03:39:32;;;;;;;3.40;2.67;;;12.70;99.90;;;;;;5464589;25;20279;-61
2024/04/14 03:42:00;;;;;;;4.20;2.87;;;12.70;99.90;;;;;;5470490;26;20263;-61
2024/04/14 03:44:33;;;;;;;7.13;3.17;;;12.60;99.90;;;;;;5469553;26;20263;-61
2024/04/14 03:47:01;;;;;;;3.93;3.47;;;12.70;99.90;;;;;;5462580;26;20238;-61
2024/04/14 03:49:29;;;;;;;7.87;4.07;;;12.70;99.90;;;;;;5463137;26;20227;-61
2024/04/14 03:51:55;;;;;;;5.33;4.30;;;12.70;99.90;;;;;;5470293;26;20278;-62
2024/04/14 03:54:23;;;;;;;5.00;4.40;;;12.70;99.90;;;;;;5470651;26;20229;-61
2024/04/14 03:56:49;;;;;;;5.30;4.30;;;12.60;99.90;;;;;;5436240;26;20237;-60
2024/04/14 03:59:17;;;;;;;5.63;4.20;;;12.50;99.90;;;;;;5470117;26;20232;-61
2024/04/14 04:01:46;;;;;;;5.53;4.43;;;12.50;99.90;;;;;;5463964;26;20632;-61
2024/04/14 04:04:14;;;;;;;7.27;4.50;;;12.40;99.90;;;;;;5462526;26;20234;-61
2024/04/14 04:06:40;;;;;;;5.30;4.13;;;12.40;99.90;;;;;;5467189;26;20246;-62
2024/04/14 04:09:08;;;;;;;5.47;4.67;;;12.30;99.90;;;;;;5469982;26;20233;-61
2024/04/14 04:11:35;;;;;;;5.73;4.17;;;12.30;99.90;;;;;;5466927;26;20229;-61
2024/04/14 04:14:03;;;;;;;4.97;4.37;;;12.30;99.90;;;;;;5462183;26;20276;-61
2024/04/14 04:16:29;;;;;;;5.43;4.40;;;12.30;99.90;;;;;;5463726;26;20246;-61
2024/04/14 04:19:00;;;;;;;6.50;4.23;;;12.30;99.90;;;;;;5470592;26;20275;-61
2024/04/14 04:21:26;;;;;;;4.87;3.80;;;12.20;99.90;;;;;;5469180;26;20237;-61
2024/04/14 04:23:54;;;;;;;5.60;4.10;;;12.20;99.90;;;;;;5462107;26;20272;-61
2024/04/14 04:26:20;;;;;;;6.90;3.63;;;12.30;99.90;;;;;;5461951;26;20277;-61
2024/04/14 04:28:48;;;;;;;3.63;3.10;;;12.40;99.90;;;;;;5468794;26;20300;-61
2024/04/14 04:31:14;;;;;;;3.63;3.00;;;12.40;99.90;;;;;;5469628;26;20264;-61
2024/04/14 04:33:43;;;;;;;3.60;3.00;;;12.50;99.90;;;;;;5464852;26;20233;-61
2024/04/14 04:36:13;;;;;;;5.80;3.43;;;12.50;99.90;;;;;;5461995;26;20288;-61
2024/04/14 04:38:41;;;;;;;3.43;2.93;;;12.40;99.90;;;;;;5466130;26;20242;-61
2024/04/14 04:41:08;;;;;;;4.10;3.00;;;12.40;99.90;;;;;;5469495;26;20407;-61
2024/04/14 04:43:36;;;;;;;5.07;3.07;;;12.50;99.90;;;;;;5467170;26;20232;-61
2024/04/14 04:46:02;;;;;;;4.00;2.70;;;12.50;99.90;;;;;;5461860;26;20767;-61
2024/04/14 04:48:30;;;;;;;5.13;2.60;;;12.50;99.90;;;;;;5462538;26;20234;-61
2024/04/14 04:50:56;;;;;;;3.87;2.80;;;12.50;99.90;;;;;;5469431;26;20237;-61
2024/04/14 04:53:27;;;;;;;3.07;2.77;;;12.50;99.90;;;;;;5469492;26;20236;-61
2024/04/14 04:55:53;;;;;;;3.73;2.40;;;12.70;99.90;;;;;;5437117;26;20239;-61
2024/04/14 04:58:21;;;;;;;3.30;2.90;;;12.80;99.90;;;;;;5469622;26;20271;-61
2024/04/14 05:00:51;;;;;;;3.23;2.53;;;12.90;99.90;;;;;;5462147;26;20242;-61
2024/04/14 05:03:20;;;;;;;5.03;3.03;;;12.90;99.90;;;;;;5461428;26;20298;-61
2024/04/14 05:05:54;;;;;;;3.47;2.80;;;13.00;99.90;;;;;;5467684;26;20238;-61
2024/04/14 05:08:22;;;;;;;4.90;2.80;;;13.00;99.90;;;;;;5469384;26;20233;-61
2024/04/14 05:10:50;;;;;;;5.37;2.50;;;13.10;99.90;;;;;;5461733;26;20280;-61
2024/04/14 05:13:19;;;;;;;3.83;2.50;;;13.20;99.90;;;;;;5461347;26;20233;-62
2024/04/14 05:15:44;;;;;;;2.60;2.40;;;13.30;99.90;;;;;;5466921;26;20230;-61
2024/04/14 05:18:13;;;;;;;6.10;3.27;;;13.40;99.90;;;;;;5469205;26;20232;-61
2024/04/14 05:20:39;;;;;;;4.13;3.07;;;13.50;99.90;;;;;;5464847;26;20562;-61
2024/04/14 05:23:07;;;;;;;3.67;2.47;;;13.60;99.90;;;;;;5461106;26;20265;-61
2024/04/14 05:25:33;;;;;;;4.50;2.40;;;13.70;99.90;;;;;;5463396;26;20577;-61
2024/04/14 05:28:04;;;;;;;4.77;2.60;;;13.90;99.90;;;;;;5468128;26;20321;-62
2024/04/14 05:30:30;;;;;;;4.53;2.70;;;14.00;99.90;;;;;;5467478;26;20229;-61
2024/04/14 05:32:58;;;;;;;3.53;2.50;;;14.30;99.90;;;;;;5460829;26;20272;-61
2024/04/14 05:35:24;;;;;;;3.43;2.37;;;14.50;99.90;;;;;;5460822;26;20233;-61
2024/04/14 05:37:52;;;;;;;2.50;2.30;;;14.70;99.90;;;;;;5468037;26;20232;-62
2024/04/14 05:40:18;;;;;;;2.57;2.37;;;14.80;99.90;;;;;;5468575;26;20229;-61
2024/04/14 05:42:46;;;;;;;4.43;2.70;;;15.00;99.90;;;;;;5463287;26;20232;-61
2024/04/14 05:45:23;;;;;;;3.63;2.20;;;15.50;99.90;;;;;;5460706;26;20272;-62
2024/04/14 05:47:51;;;;;;;3.33;2.13;;;16.20;99.90;;;;;;5467721;26;20232;-61
2024/04/14 05:50:17;;;;;;;3.75;2.15;;;16.80;99.90;;;;;;5468294;26;20774;-62
2024/04/14 05:52:46;;;;;;;3.33;2.20;;;17.20;99.90;;;;;;5463471;26;20325;-62
2024/04/14 05:55:11;;;;;;;3.67;2.28;;;17.70;99.90;;;;;;5460986;26;20265;-61
2024/04/14 05:57:40;;;;;;;2.72;2.42;;;18.20;99.90;;;;;;5463766;26;20585;-62
2024/04/14 06:00:07;;;;;;;2.58;2.00;;;18.70;99.90;;;;;;5468166;26;20271;-62
2024/04/14 06:02:37;;;;;;;3.60;2.28;;;19.00;99.90;;;;;;5466929;26;20328;-63
2024/04/14 06:05:04;;;;;;;2.75;2.10;;;19.30;99.90;;;;;;5460267;26;20269;-62
2024/04/14 06:07:33;;;;;;;2.38;1.75;;;19.50;99.90;;;;;;5461089;26;20548;-62
2024/04/14 06:10:00;;;;;;;2.35;2.00;;;19.50;99.90;;;;;;5468337;26;20598;-61
2024/04/14 06:12:28;;;;;;;2.65;2.00;;;19.70;99.90;;;;;;5468678;26;20271;-61
2024/04/14 06:14:54;;;;;;;3.28;1.92;;;20.00;99.90;;;;;;5460397;26;20337;-61
2024/04/14 06:17:22;;;;;;;3.40;2.03;;;20.40;99.90;;;;;;5458758;20;20755;-62
2024/04/14 06:19:53;;;;;;;2.42;2.10;;;20.70;99.90;;;;;;5435124;26;20238;-62
2024/04/14 06:22:19;;;;;;;2.47;2.20;;;20.90;99.90;;;;;;5436336;26;20257;-61
2024/04/14 06:24:47;;;;;;;2.92;1.90;;;21.30;99.90;;;;;;5432186;26;20233;-61
2024/04/14 06:27:13;;;;;;;2.08;1.88;;;21.70;99.90;;;;;;5430152;26;20235;-61
2024/04/14 06:29:41;;;;;;;4.85;2.35;;;22.20;99.90;;;;;;5432334;26;20277;-60
2024/04/14 06:32:07;;;;;;;2.20;2.00;;;22.70;99.90;;;;;;5436466;26;20226;-61
2024/04/14 06:34:35;;;;;;;3.20;2.10;;;23.20;99.90;;;;;;5435251;26;20952;-61
2024/04/14 06:37:04;;;;;;;1.95;1.75;;;23.70;99.90;;;;;;5429842;26;20747;-60
2024/04/14 06:39:32;;;;;;;4.28;2.10;;;24.20;99.90;;;;;;5429902;26;20235;-61
2024/04/14 06:41:59;;;;;;;2.92;2.10;;;25.10;99.90;;;;;;5436196;26;20226;-61
2024/04/14 06:44:27;;;;;;;3.30;1.90;;;26.20;98.40;;;;;;5436276;26;20241;-61
2024/04/14 06:46:53;;;;;;;2.67;1.92;;;27.00;97.20;;;;;;5430014;26;20238;-61
2024/04/14 06:49:21;;;;;;;2.50;1.70;;;27.50;95.40;;;;;;5429758;26;20273;-61
2024/04/14 06:51:47;;;;;;;2.53;1.65;;;28.00;93.70;;;;;;5434133;26;20273;-62
2024/04/14 06:54:18;;;;;;;4.72;1.95;;;28.60;92.90;;;;;;5435720;26;20734;-60
2024/04/14 06:56:43;;;;;;;6.15;2.83;;;29.10;91.30;;;;;;5432063;26;20276;-62
2024/04/14 06:59:12;;;;;;;3.95;2.42;;;29.20;90.90;;;;;;5429140;26;20235;-61
2024/04/14 07:01:38;;;;;;;4.80;2.13;;;29.60;88.30;;;;;;5431606;26;20230;-60
2024/04/14 07:04:06;;;;;;;2.47;2.08;;;29.70;87.10;;;;;;5435664;26;20264;-60
2024/04/14 07:06:32;;;;;;;2.92;1.88;;;29.70;84.70;;;;;;5434672;26;20279;-60
2024/04/14 07:09:00;;;;;;;3.88;1.70;;;28.50;86.80;;;;;;5429474;26;20231;-60
2024/04/14 07:11:29;;;;;;;5.60;2.35;;;27.10;90.00;;;;;;5429127;26;20235;-59
2024/04/14 07:13:57;;;;;;;3.05;1.83;;;26.30;91.70;;;;;;5414803;26;20280;-61
2024/04/14 07:16:23;;;;;;;3.65;1.95;;;25.80;92.10;;;;;;5429208;26;20235;-61
2024/04/14 07:18:52;;;;;;;3.45;2.13;;;25.60;92.80;;;;;;5433868;26;20235;-59
2024/04/14 07:21:17;;;;;;;5.65;2.30;;;26.10;92.70;;;;;;5423286;26;20231;-60
2024/04/14 07:23:46;;;;;;;2.53;2.10;;;27.00;91.70;;;;;;5432284;26;20431;-60
2024/04/14 07:26:11;;;;;;;4.90;2.60;;;28.10;90.70;;;;;;5435151;26;20234;-60
2024/04/14 07:28:42;;;;;;;3.22;2.00;;;29.30;89.30;;;;;;5433271;26;20323;-61
2024/04/14 07:31:08;;;;;;;2.10;1.70;;;30.30;84.90;;;;;;5428870;26;20227;-59
2024/04/14 07:33:37;;;;;;;2.15;1.58;;;31.00;81.40;;;;;;5429676;26;20277;-61
2024/04/14 07:36:06;;;;;;;2.28;1.50;;;31.80;77.30;;;;;;5434873;26;20284;-59
2024/04/14 07:38:32;;;;;;;4.90;2.00;;;32.10;73.30;;;;;;5434343;26;20233;-60
2024/04/14 07:41:00;;;;;;;1.92;1.60;;;32.60;73.90;;;;;;5428667;26;20281;-60
2024/04/14 07:43:26;;;;;;;3.58;1.63;;;33.20;72.70;;;;;;5428863;26;20589;-59
2024/04/14 07:45:58;;;;;;;5.70;2.00;;;34.00;70.50;;;;;;5434199;26;20237;-59
2024/04/14 07:48:23;;;;;;;2.55;2.15;;;34.40;68.20;;;;;;5435246;26;20469;-60
2024/04/14 07:50:52;;;;;;;1.90;1.70;;;34.90;65.60;;;;;;5432828;26;20276;-60
2024/04/14 07:53:17;;;;;;;5.22;1.80;;;35.10;64.30;;;;;;5432544;26;20258;-60
2024/04/14 07:55:46;;;;;;;3.83;3.30;;;35.20;62.90;;;;;;5435767;26;20235;-60
2024/04/14 07:58:11;;;;;;;2.08;1.75;;;35.20;60.90;;;;;;5438818;26;20226;-61
2024/04/14 08:00:40;;;;;;;3.75;1.55;;;35.10;60.50;;;;;;5436416;26;20572;-61
2024/04/14 08:03:08;;;;;;;3.10;1.60;;;35.10;60.50;;;;;;5432136;26;20274;-59
2024/04/14 08:05:37;;;;;;;2.03;1.65;;;35.30;59.50;;;;;;5432600;26;20810;-58
2024/04/14 08:08:03;;;;;;;3.00;1.52;;;35.50;59.10;;;;;;5438272;26;20268;-60
2024/04/14 08:10:32;;;;;;;2.85;1.50;;;35.20;59.20;;;;;;5437554;26;20277;-59
2024/04/14 08:12:57;;;;;;;3.90;1.63;;;34.40;59.90;;;;;;5417635;26;20261;-60
2024/04/14 08:15:26;;;;;;;1.65;1.38;;;33.80;61.90;;;;;;5431789;26;20239;-59
2024/04/14 08:17:52;;;;;;;2.13;1.45;;;33.20;62.40;;;;;;5436826;26;20726;-59
2024/04/14 08:20:23;;;;;;;2.65;1.60;;;32.50;64.00;;;;;;5437669;26;20234;-58
2024/04/14 08:22:49;;;;;;;2.90;1.80;;;31.60;65.90;;;;;;5433710;26;20238;-59
2024/04/14 08:25:17;;;;;;;4.55;1.88;;;30.30;68.60;;;;;;5431745;26;20270;-60
2024/04/14 08:27:43;;;;;;;5.93;2.00;;;29.40;71.20;;;;;;5434455;26;20262;-60
2024/04/14 08:30:13;;;;;;;2.22;1.70;;;28.70;73.40;;;;;;5437691;26;20229;-60
2024/04/14 08:32:39;;;;;;;5.65;1.88;;;28.40;75.00;;;;;;5436396;26;20229;-59
2024/04/14 08:35:08;;;;;;;5.97;1.90;;;27.90;76.10;;;;;;5431835;26;20277;-60
2024/04/14 08:37:36;;;;;;;4.95;1.90;;;27.50;78.30;;;;;;5432039;26;20231;-59
2024/04/14 08:40:05;;;;;;;3.92;2.05;;;27.20;79.50;;;;;;5437599;26;20229;-60
2024/04/14 08:42:33;;;;;;;3.58;1.60;;;27.20;80.00;;;;;;5437925;26;20237;-58
2024/04/14 08:45:04;;;;;;;2.75;1.50;;;27.20;80.50;;;;;;5417435;26;20231;-60
2024/04/14 08:47:31;;;;;;;5.38;1.67;;;26.80;81.60;;;;;;5432068;26;20376;-61
2024/04/14 08:50:00;;;;;;;4.43;1.85;;;26.40;83.40;;;;;;5437385;26;20354;-61
2024/04/14 08:52:28;;;;;;;4.10;1.92;;;26.00;84.30;;;;;;5437742;26;20286;-58
2024/04/14 08:54:59;;;;;;;5.43;1.98;;;25.60;86.00;;;;;;5432673;26;20332;-65
2024/04/14 08:57:26;;;;;;;2.92;2.05;;;25.40;87.70;;;;;;5431386;26;20277;-61
2024/04/14 08:59:59;;;;;;;3.42;2.00;;;25.30;89.10;;;;;;5435700;26;20312;-58
2024/04/14 09:02:24;;;;;;;4.47;1.90;;;25.20;89.90;;;;;;5435958;26;20268;-58
2024/04/14 09:04:53;;;;;;;2.15;1.65;;;24.80;90.20;;;;;;5432868;26;20234;-58
2024/04/14 09:07:19;;;;;;;3.17;1.77;;;24.60;91.00;;;;;;5431247;26;20235;-59
2024/04/14 09:09:49;;;;;;;5.70;2.20;;;24.40;91.60;;;;;;5434026;26;20235;-59
2024/04/14 09:12:17;;;;;;;2.22;1.77;;;24.50;91.90;;;;;;5437311;26;20285;-57
2024/04/14 09:14:49;;;;;;;2.40;1.75;;;24.60;91.80;;;;;;5435242;26;20714;-57
2024/04/14 09:17:15;;;;;;;4.22;1.92;;;24.70;92.30;;;;;;5430749;26;20239;-57
2024/04/14 09:19:44;;;;;;;2.05;1.70;;;25.00;92.10;;;;;;5432456;26;20258;-58
2024/04/14 09:22:10;;;;;;;2.40;1.88;;;25.20;92.00;;;;;;5437128;26;20773;-58
2024/04/14 09:24:38;;;;;;;2.75;2.00;;;25.50;91.30;;;;;;5451676;26;20234;-58
2024/04/14 09:27:04;;;;;;;3.78;1.70;;;25.90;91.00;;;;;;5431031;26;20623;-59
2024/04/14 09:29:36;;;;;;;4.13;1.73;;;25.70;91.20;;;;;;5430538;26;20235;-58
2024/04/14 09:32:02;;;;;;;4.10;1.73;;;25.70;91.50;;;;;;5417050;26;20258;-59
2024/04/14 09:34:30;;;;;;;2.28;1.70;;;25.40;91.90;;;;;;5430977;26;20580;-58
2024/04/14 09:36:57;;;;;;;2.05;1.65;;;25.50;92.20;;;;;;5436012;26;20622;-58
2024/04/14 09:39:28;;;;;;;4.97;1.90;;;25.80;92.40;;;;;;5436763;26;20237;-58
2024/04/14 09:41:56;;;;;;;4.20;2.08;;;26.10;91.80;;;;;;5431967;26;20716;-58
2024/04/14 09:44:25;;;;;;;4.78;1.98;;;26.30;91.30;;;;;;5430927;26;20571;-57
2024/04/14 09:46:55;;;;;;;4.43;1.77;;;26.50;91.20;;;;;;5434697;26;20235;-59
2024/04/14 09:49:29;;;;;;;2.67;1.80;;;26.70;91.40;;;;;;5436803;26;20288;-58
2024/04/14 09:51:56;;;;;;;4.07;1.90;;;26.90;91.30;;;;;;5431539;26;20242;-59
2024/04/14 09:54:25;;;;;;;4.93;3.67;;;27.10;90.90;;;;;;5430563;26;20234;-58
2024/04/14 09:56:51;;;;;;;3.35;2.47;;;26.90;91.00;;;;;;5434560;26;20269;-64
2024/04/14 09:59:19;;;;;;;4.20;1.65;;;26.90;91.10;;;;;;5421722;26;20231;-63
2024/04/14 10:01:47;;;;;;;2.17;1.98;;;26.90;91.40;;;;;;5432883;26;20262;-59
2024/04/14 10:04:18;;;;;;;2.67;1.77;;;27.00;91.70;;;;;;5436371;26;20334;-61
2024/04/14 10:06:44;;;;;;;2.95;1.63;;;27.10;91.30;;;;;;5434486;26;20515;-70
2024/04/14 10:09:14;;;;;;;5.05;1.77;;;27.30;91.00;;;;;;5430388;26;20243;-66
2024/04/14 10:11:42;;;;;;;5.43;1.95;;;27.40;91.50;;;;;;5431637;26;20273;-67
2024/04/14 10:14:14;;;;;;;4.00;3.00;;;27.40;91.00;;;;;;5436334;26;20293;-69
2024/04/14 10:16:54;;;;;;;4.30;2.08;;;27.30;91.20;;;;;;5434904;26;20234;-68
2024/04/14 10:19:25;;;;;;;4.18;1.90;;;27.40;90.60;;;;;;5430080;26;20274;-68
2024/04/14 10:21:59;;;;;;;4.18;2.47;;;27.40;90.40;;;;;;5434309;26;20230;-69
2024/04/14 10:24:32;;;;;;;5.10;3.40;;;27.50;90.30;;;;;;5436471;26;20247;-69
2024/04/14 10:27:05;;;;;;;3.95;1.88;;;27.50;90.30;;;;;;5430618;26;20235;-66
2024/04/14 10:29:34;;;;;;;3.25;1.88;;;27.60;90.70;;;;;;5429903;26;20239;-67
2024/04/14 10:32:00;;;;;;;4.60;2.08;;;27.80;90.10;;;;;;5435728;26;20226;-65
2024/04/14 10:34:34;;;;;;;5.07;2.92;;;27.90;90.00;;;;;;5436298;26;20237;-66
2024/04/14 10:36:59;;;;;;;3.85;2.63;;;27.90;88.90;;;;;;5429896;26;20559;-64
2024/04/14 10:39:30;;;;;;;2.28;1.70;;;27.90;89.40;;;;;;5430168;26;20265;-65
2024/04/14 10:41:56;;;;;;;4.32;1.85;;;27.90;90.00;;;;;;5435065;26;20237;-65
2024/04/14 10:44:24;;;;;;;4.70;1.70;;;27.90;89.10;;;;;;5436522;26;20596;-67
2024/04/14 10:46:51;;;;;;;3.08;1.90;;;27.80;88.60;;;;;;5432408;26;20275;-61
2024/04/14 10:49:21;;;;;;;4.05;2.25;;;27.60;89.60;;;;;;5429370;26;20234;-62
2024/04/14 10:51:50;;;;;;;3.25;1.80;;;27.50;89.00;;;;;;5432763;26;20723;-62
2024/04/14 10:54:19;;;;;;;4.28;1.83;;;27.30;89.30;;;;;;5436243;26;20673;-61
2024/04/14 10:56:45;;;;;;;4.03;1.63;;;27.30;90.00;;;;;;5433938;26;20238;-61
2024/04/14 10:59:15;;;;;;;5.18;1.88;;;27.40;89.50;;;;;;5429854;26;20298;-61
2024/04/14 11:01:41;;;;;;;2.85;1.80;;;27.50;89.70;;;;;;5430330;26;20343;-61
2024/04/14 11:04:14;;;;;;;2.42;1.65;;;27.70;89.10;;;;;;5436323;26;20708;-62
2024/04/14 11:06:40;;;;;;;4.50;1.92;;;27.70;90.00;;;;;;5434874;26;20319;-67
2024/04/14 11:09:11;;;;;;;3.80;1.95;;;27.80;89.20;;;;;;5429178;26;20230;-61
2024/04/14 11:11:38;;;;;;;2.20;1.58;;;27.90;88.20;;;;;;5429893;26;20230;-61
2024/04/14 11:14:07;;;;;;;4.80;2.00;;;28.00;87.50;;;;;;5436825;26;20751;-61
2024/04/14 11:16:33;;;;;;;1.67;1.58;;;28.00;87.70;;;;;;5436115;26;20269;-61
2024/04/14 11:19:01;;;;;;;3.60;2.17;;;27.80;87.30;;;;;;5430478;26;20345;-60
2024/04/14 11:21:27;;;;;;;2.92;1.45;;;27.60;87.50;;;;;;5429485;26;20231;-61
2024/04/14 11:23:56;;;;;;;2.15;1.58;;;27.50;87.90;;;;;;5433968;26;20231;-63
2024/04/14 11:26:26;;;;;;;2.42;1.60;;;27.50;88.70;;;;;;5439280;26;20279;-61
2024/04/14 11:28:54;;;;;;;3.03;1.77;;;27.60;87.90;;;;;;5436107;26;20278;-60
2024/04/14 11:31:21;;;;;;;5.90;3.72;;;27.80;86.50;;;;;;5432527;26;20231;-60
2024/04/14 11:33:54;;;;;;;4.28;2.10;;;28.10;86.40;;;;;;5434907;26;20235;-58
2024/04/14 11:36:20;;;;;;;3.38;1.63;;;28.40;85.40;;;;;;5439274;26;20234;-59
2024/04/14 11:38:49;;;;;;;2.60;1.60;;;28.20;84.30;;;;;;5436830;26;20238;-59
2024/04/14 11:41:15;;;;;;;3.65;1.80;;;28.10;86.50;;;;;;5432479;26;20261;-65
2024/04/14 11:43:46;;;;;;;1.92;1.48;;;28.30;86.60;;;;;;5433744;26;20235;-59
2024/04/14 11:46:13;;;;;;;2.75;2.08;;;28.50;84.60;;;;;;5439030;26;20313;-58
2024/04/14 11:48:43;;;;;;;2.70;1.38;;;28.60;84.40;;;;;;5438491;26;20767;-58
2024/04/14 11:51:09;;;;;;;3.67;1.70;;;28.60;83.90;;;;;;5432345;26;20277;-58
2024/04/14 11:53:38;;;;;;;3.88;2.70;;;28.70;83.70;;;;;;5432531;26;20235;-58
2024/04/14 11:56:04;;;;;;;5.97;1.90;;;28.90;83.30;;;;;;5418174;26;20755;-57
2024/04/14 11:58:33;;;;;;;2.47;1.80;;;29.10;82.90;;;;;;5432576;26;20246;-58
2024/04/14 12:01:01;;;;;;;3.13;1.95;;;29.20;83.50;;;;;;5437072;26;20269;-58
2024/04/14 12:03:30;;;;;;;3.03;1.83;;;29.20;82.60;;;;;;5438864;26;20233;-58
2024/04/14 12:05:55;;;;;;;3.72;1.75;;;29.00;82.50;;;;;;5434504;26;20297;-58
2024/04/14 12:08:24;;;;;;;3.05;2.30;;;29.00;82.60;;;;;;5432562;26;20323;-67
2024/04/14 12:10:49;;;;;;;2.67;1.70;;;29.10;82.20;;;;;;5434960;26;20227;-58
2024/04/14 12:13:18;;;;;;;3.90;1.80;;;29.20;81.40;;;;;;5439229;26;20285;-59
2024/04/14 12:15:45;;;;;;;3.03;2.20;;;29.20;80.90;;;;;;5438140;26;20234;-62
2024/04/14 12:18:18;;;;;;;5.20;1.70;;;29.40;81.20;;;;;;5432722;26;20674;-62
2024/04/14 12:20:43;;;;;;;4.55;2.17;;;29.40;80.10;;;;;;5433357;26;20235;-60
2024/04/14 12:23:12;;;;;;;3.10;1.50;;;29.40;80.40;;;;;;5438588;26;20276;-60
2024/04/14 12:25:37;;;;;;;3.63;2.03;;;29.40;80.60;;;;;;5438587;26;20242;-61
2024/04/14 12:28:06;;;;;;;3.38;3.00;;;29.40;81.70;;;;;;5433130;26;20324;-59
2024/04/14 12:30:36;;;;;;;2.90;1.67;;;29.40;82.20;;;;;;5432107;26;20355;-60
2024/04/14 12:33:04;;;;;;;5.10;2.35;;;29.30;81.20;;;;;;5438153;26;20230;-59
2024/04/14 12:35:32;;;;;;;2.85;1.90;;;29.10;81.60;;;;;;5425911;26;20234;-59
2024/04/14 12:38:01;;;;;;;4.88;1.75;;;28.60;83.50;;;;;;5436905;26;20399;-59
2024/04/14 12:40:27;;;;;;;2.97;1.60;;;28.20;82.70;;;;;;5437925;26;20264;-61
2024/04/14 12:42:55;;;;;;;4.15;1.80;;;27.90;83.90;;;;;;5434585;26;20237;-59
2024/04/14 12:45:21;;;;;;;2.70;1.35;;;27.70;86.20;;;;;;5431659;26;20234;-59
2024/04/14 12:47:49;;;;;;;2.70;1.85;;;27.80;86.70;;;;;;5433617;26;20234;-60
2024/04/14 12:50:18;;;;;;;2.70;1.60;;;28.00;85.50;;;;;;5438298;26;20738;-62